createdAt,value
2019-05-29T00:00:21.120Z,99.90
2019-05-29T00:02:49.547Z,99.90
2019-05-29T00:05:18.411Z,99.90
2019-05-29T00:07:48.981Z,99.90
2019-05-29T00:10:18.611Z,99.90
2019-05-29T00:12:47.121Z,99.90
2019-05-29T00:15:15.507Z,99.90
2019-05-29T00:17:43.907Z,99.90
2019-05-29T00:20:12.402Z,99.90
2019-05-29T00:22:40.789Z,99.90
2019-05-29T00:25:10.493Z,99.90
2019-05-29T00:27:39.071Z,99.90
2019-05-29T00:30:08.555Z,99.90
2019-05-29T00:32:37.228Z,99.90
2019-05-29T00:35:08.104Z,99.90
2019-05-29T00:37:36.677Z,99.90
2019-05-29T00:40:08.916Z,99.90
2019-05-29T00:42:37.536Z,99.90
2019-05-29T00:45:09.339Z,99.90
2019-05-29T00:47:37.948Z,99.90
2019-05-29T00:50:07.865Z,99.90
2019-05-29T00:52:36.460Z,99.90
2019-05-29T00:55:05.984Z,99.90
2019-05-29T00:57:34.410Z,99.90
2019-05-29T01:00:03.129Z,99.90
2019-05-29T01:02:31.557Z,99.90
2019-05-29T01:04:59.914Z,99.90
2019-05-29T01:07:28.323Z,99.90
2019-05-29T01:09:56.695Z,99.90
2019-05-29T01:12:25.102Z,99.90
2019-05-29T01:14:53.490Z,99.90
2019-05-29T01:17:21.935Z,99.90
2019-05-29T01:19:50.419Z,99.90
2019-05-29T01:22:18.880Z,99.90
2019-05-29T01:24:47.557Z,99.90
2019-05-29T01:27:16.815Z,99.90
2019-05-29T01:29:45.231Z,99.90
2019-05-29T01:32:13.637Z,99.90
2019-05-29T01:34:42.011Z,99.90
2019-05-29T01:37:10.430Z,99.90
2019-05-29T01:39:38.821Z,99.90
2019-05-29T01:42:07.210Z,99.90
2019-05-29T01:44:35.594Z,99.90
2019-05-29T01:47:04.010Z,99.90
2019-05-29T01:49:32.386Z,99.90
2019-05-29T01:52:00.784Z,99.90
2019-05-29T01:54:29.187Z,99.90
2019-05-29T01:56:57.564Z,99.90
2019-05-29T01:59:25.959Z,99.90
2019-05-29T02:02:15.785Z,99.90
2019-05-29T02:04:44.200Z,99.90
2019-05-29T02:07:12.601Z,99.90
2019-05-29T02:09:40.986Z,99.90
2019-05-29T02:12:09.400Z,99.90
2019-05-29T02:14:38.066Z,99.90
2019-05-29T02:17:06.471Z,99.90
2019-05-29T02:19:34.873Z,99.90
2019-05-29T02:22:03.262Z,99.90
2019-05-29T02:24:31.652Z,99.90
2019-05-29T02:27:00.080Z,99.90
2019-05-29T02:29:28.485Z,99.90
2019-05-29T02:31:56.889Z,99.90
2019-05-29T02:34:27.281Z,99.90
2019-05-29T02:36:55.353Z,99.90
2019-05-29T02:39:25.641Z,99.90
2019-05-29T02:41:53.936Z,99.90
2019-05-29T02:44:23.492Z,99.90
2019-05-29T02:46:51.886Z,99.90
2019-05-29T02:49:21.532Z,99.90
2019-05-29T02:51:49.984Z,99.90
2019-05-29T02:54:18.417Z,99.90
2019-05-29T02:57:06.205Z,99.90
2019-05-29T02:59:34.587Z,99.90
2019-05-29T03:02:02.960Z,99.90
2019-05-29T03:04:32.807Z,99.90
2019-05-29T03:07:01.387Z,99.90
2019-05-29T03:09:30.737Z,99.90
2019-05-29T03:12:00.443Z,99.90
2019-05-29T03:14:29.672Z,99.90
2019-05-29T03:16:58.594Z,99.90
2019-05-29T03:19:28.005Z,99.90
2019-05-29T03:21:56.469Z,99.90
2019-05-29T03:24:26.476Z,99.90
2019-05-29T03:26:54.899Z,99.90
2019-05-29T03:29:23.298Z,99.90
2019-05-29T03:31:51.701Z,99.90
2019-05-29T03:34:20.137Z,99.90
2019-05-29T03:36:49.139Z,99.90
2019-05-29T03:39:17.811Z,99.90
2019-05-29T03:41:46.190Z,99.90
2019-05-29T03:44:14.591Z,99.90
2019-05-29T03:46:46.009Z,99.90
2019-05-29T03:49:13.040Z,99.90
2019-05-29T03:51:41.408Z,99.90
2019-05-29T03:54:09.824Z,99.90
2019-05-29T03:56:38.888Z,99.90
2019-05-29T03:59:07.520Z,99.90
2019-05-29T04:01:37.295Z,99.90
2019-05-29T04:04:05.903Z,99.90
2019-05-29T04:06:35.563Z,99.90
2019-05-29T04:09:05.994Z,99.90
2019-05-29T04:11:35.642Z,99.90
2019-05-29T04:14:04.020Z,99.90
2019-05-29T04:16:52.686Z,99.90
2019-05-29T04:19:03.607Z,99.90
2019-05-29T04:21:32.578Z,99.90
2019-05-29T04:24:04.088Z,99.90
2019-05-29T04:26:33.942Z,99.90
2019-05-29T04:29:02.961Z,99.90
2019-05-29T04:31:32.517Z,99.90
2019-05-29T04:34:01.418Z,99.90
2019-05-29T04:36:30.717Z,99.90
2019-05-29T04:38:59.864Z,99.90
2019-05-29T04:41:28.903Z,99.90
2019-05-29T04:43:58.304Z,99.90
2019-05-29T04:46:26.702Z,99.90
2019-05-29T04:48:55.082Z,99.90
2019-05-29T04:51:23.495Z,99.90
2019-05-29T04:53:51.945Z,99.90
2019-05-29T04:56:20.354Z,99.90
2019-05-29T04:58:48.752Z,99.90
2019-05-29T05:01:17.148Z,99.90
2019-05-29T05:03:45.520Z,99.90
2019-05-29T05:06:13.928Z,99.90
2019-05-29T05:08:42.297Z,99.90
2019-05-29T05:11:10.849Z,99.90
2019-05-29T05:13:39.774Z,99.90
2019-05-29T05:16:08.347Z,99.90
2019-05-29T05:18:37.873Z,99.90
2019-05-29T05:21:06.280Z,99.90
2019-05-29T05:23:34.670Z,99.90
2019-05-29T05:26:03.047Z,99.90
2019-05-29T05:28:32.157Z,99.90
2019-05-29T05:31:00.639Z,99.90
2019-05-29T05:33:30.334Z,99.90
2019-05-29T05:35:58.844Z,99.90
2019-05-29T05:38:27.250Z,99.90
2019-05-29T05:40:55.652Z,99.90
2019-05-29T05:43:24.718Z,99.90
2019-05-29T05:45:53.252Z,99.90
2019-05-29T05:48:21.668Z,99.90
2019-05-29T05:50:50.207Z,99.90
2019-05-29T05:53:18.591Z,99.90
2019-05-29T05:55:47.016Z,99.90
2019-05-29T05:58:15.399Z,99.90
2019-05-29T06:00:43.790Z,99.90
2019-05-29T06:03:12.201Z,99.90
2019-05-29T06:05:40.628Z,99.90
2019-05-29T06:08:09.019Z,99.90
2019-05-29T06:10:38.200Z,99.90
2019-05-29T06:13:06.728Z,99.90
2019-05-29T06:15:36.401Z,99.90
2019-05-29T06:18:20.458Z,99.90
2019-05-29T06:20:35.166Z,99.90
2019-05-29T06:23:03.580Z,99.90
2019-05-29T06:25:33.632Z,99.90
2019-05-29T06:28:02.040Z,99.90
2019-05-29T06:30:30.464Z,99.90
2019-05-29T06:32:58.940Z,99.90
2019-05-29T06:35:27.353Z,99.90
2019-05-29T06:37:55.787Z,99.90
2019-05-29T06:40:38.441Z,99.90
2019-05-29T06:43:11.649Z,99.90
2019-05-29T06:45:38.197Z,99.90
2019-05-29T06:48:07.861Z,99.90
2019-05-29T06:50:37.345Z,99.90
2019-05-29T06:53:05.857Z,99.90
2019-05-29T06:55:35.665Z,99.90
2019-05-29T06:58:04.327Z,99.90
2019-05-29T07:00:35.578Z,99.90
2019-05-29T07:03:02.760Z,99.90
2019-05-29T07:05:31.148Z,99.90
2019-05-29T07:08:16.553Z,99.90
2019-05-29T07:10:30.572Z,99.90
2019-05-29T07:12:58.965Z,99.90
2019-05-29T07:15:27.340Z,99.90
2019-05-29T07:17:55.760Z,99.90
2019-05-29T07:20:24.163Z,99.90
2019-05-29T07:22:52.545Z,99.90
2019-05-29T07:25:20.960Z,99.90
2019-05-29T07:27:49.356Z,99.90
2019-05-29T07:30:17.856Z,99.80
2019-05-29T07:32:56.336Z,99.30
2019-05-29T07:35:16.264Z,98.80
2019-05-29T07:37:45.934Z,98.80
2019-05-29T07:40:14.470Z,98.60
2019-05-29T07:42:49.728Z,98.50
2019-05-29T07:45:13.149Z,98.40
2019-05-29T07:47:42.481Z,98.00
2019-05-29T07:50:11.269Z,97.80
2019-05-29T07:52:40.823Z,97.70
2019-05-29T07:55:09.457Z,97.40
2019-05-29T07:57:38.823Z,97.20
2019-05-29T08:00:08.278Z,97.20
2019-05-29T08:02:36.726Z,97.20
2019-05-29T08:05:05.652Z,97.10
2019-05-29T08:07:34.080Z,97.00
2019-05-29T08:10:02.550Z,96.40
2019-05-29T08:12:30.934Z,96.60
2019-05-29T08:15:19.034Z,96.40
2019-05-29T08:17:48.170Z,96.00
2019-05-29T08:20:16.630Z,95.80
2019-05-29T08:22:46.300Z,95.70
2019-05-29T08:25:14.850Z,95.70
2019-05-29T08:27:44.609Z,95.10
2019-05-29T08:30:13.217Z,94.60
2019-05-29T08:32:43.415Z,94.50
2019-05-29T08:35:11.654Z,94.20
2019-05-29T08:37:40.788Z,93.60
2019-05-29T08:40:09.367Z,93.20
2019-05-29T08:42:37.773Z,93.00
2019-05-29T08:45:08.872Z,92.90
2019-05-29T08:47:37.679Z,92.80
2019-05-29T08:50:18.250Z,92.60
2019-05-29T08:52:36.629Z,92.00
2019-05-29T08:55:05.567Z,92.00
2019-05-29T08:57:34.137Z,91.80
2019-05-29T09:00:02.615Z,91.40
2019-05-29T09:02:32.630Z,91.30
2019-05-29T09:05:01.035Z,90.90
2019-05-29T09:07:29.470Z,90.90
2019-05-29T09:09:57.889Z,91.00
2019-05-29T09:12:29.712Z,91.00
2019-05-29T09:14:56.330Z,90.70
2019-05-29T09:17:24.719Z,90.20
2019-05-29T09:19:53.112Z,89.00
2019-05-29T09:22:22.834Z,86.50
2019-05-29T09:24:51.373Z,85.40
2019-05-29T09:27:19.800Z,85.30
2019-05-29T09:29:48.237Z,85.70
2019-05-29T09:32:18.017Z,86.00
2019-05-29T09:34:47.715Z,85.70
2019-05-29T09:37:17.323Z,85.10
2019-05-29T09:39:46.311Z,85.40
2019-05-29T09:42:15.080Z,84.90
2019-05-29T09:44:44.939Z,84.80
2019-05-29T09:47:13.326Z,84.40
2019-05-29T09:49:41.733Z,83.30
2019-05-29T09:52:10.103Z,83.20
2019-05-29T09:54:38.508Z,82.60
2019-05-29T09:57:06.961Z,82.50
2019-05-29T09:59:35.365Z,83.10
2019-05-29T10:02:07.519Z,81.70
2019-05-29T10:04:33.830Z,80.70
2019-05-29T10:07:03.041Z,79.20
2019-05-29T10:09:32.260Z,79.30
2019-05-29T10:12:04.118Z,79.50
2019-05-29T10:14:30.701Z,80.60
2019-05-29T10:17:02.709Z,79.70
2019-05-29T10:19:29.218Z,79.50
2019-05-29T10:21:58.323Z,79.70
2019-05-29T10:24:27.676Z,79.40
2019-05-29T10:26:57.455Z,79.10
2019-05-29T10:29:26.103Z,78.40
2019-05-29T10:31:54.519Z,78.80
2019-05-29T10:34:22.944Z,79.00
2019-05-29T10:36:53.573Z,78.70
2019-05-29T10:39:21.365Z,78.30
2019-05-29T10:41:50.879Z,77.70
2019-05-29T10:44:19.470Z,76.30
2019-05-29T10:46:49.959Z,75.30
2019-05-29T10:49:17.876Z,75.10
2019-05-29T10:52:02.220Z,75.10
2019-05-29T10:54:16.372Z,74.10
2019-05-29T10:56:44.864Z,74.50
2019-05-29T10:59:13.270Z,74.70
2019-05-29T11:01:41.743Z,74.60
2019-05-29T11:04:10.111Z,74.00
2019-05-29T11:06:40.898Z,72.50
2019-05-29T11:09:08.534Z,71.60
2019-05-29T11:11:36.941Z,71.30
2019-05-29T11:14:16.172Z,71.30
2019-05-29T11:16:44.655Z,68.60
2019-05-29T11:19:13.117Z,67.50
2019-05-29T11:21:41.588Z,67.60
2019-05-29T11:24:09.984Z,67.40
2019-05-29T11:26:38.376Z,66.40
2019-05-29T11:29:06.850Z,66.30
2019-05-29T11:31:35.257Z,67.10
2019-05-29T11:34:03.682Z,67.80
2019-05-29T11:36:32.068Z,68.10
2019-05-29T11:39:05.358Z,67.90
2019-05-29T11:41:30.687Z,67.50
2019-05-29T11:43:59.097Z,67.40
2019-05-29T11:46:27.512Z,67.60
2019-05-29T11:48:57.231Z,67.50
2019-05-29T11:51:25.711Z,66.50
2019-05-29T11:53:55.325Z,65.40
2019-05-29T11:56:23.896Z,64.40
2019-05-29T11:58:52.780Z,64.10
2019-05-29T12:01:21.277Z,64.50
2019-05-29T12:04:13.348Z,62.80
2019-05-29T12:06:39.129Z,61.40
2019-05-29T12:09:09.649Z,60.70
2019-05-29T12:11:38.301Z,61.00
2019-05-29T12:14:06.698Z,62.10
2019-05-29T12:16:35.192Z,62.80
2019-05-29T12:19:03.571Z,63.30
2019-05-29T12:21:31.982Z,62.10
2019-05-29T12:24:00.391Z,60.60
2019-05-29T12:26:28.822Z,59.60
2019-05-29T12:29:04.528Z,59.90
2019-05-29T12:31:27.261Z,61.60
2019-05-29T12:33:58.689Z,60.50
2019-05-29T12:36:25.830Z,59.60
2019-05-29T12:38:55.206Z,58.60
2019-05-29T12:41:23.780Z,58.20
2019-05-29T12:43:53.193Z,57.60
2019-05-29T12:46:21.786Z,56.80
2019-05-29T12:48:50.172Z,57.00
2019-05-29T12:51:18.572Z,57.70
2019-05-29T12:53:46.949Z,57.90
2019-05-29T12:56:15.378Z,57.00
2019-05-29T12:58:43.753Z,58.00
2019-05-29T13:01:12.148Z,58.30
2019-05-29T13:03:40.546Z,58.20
2019-05-29T13:06:08.922Z,57.80
2019-05-29T13:08:37.332Z,56.00
2019-05-29T13:11:05.720Z,55.00
2019-05-29T13:13:34.108Z,55.10
2019-05-29T13:16:03.013Z,55.50
2019-05-29T13:18:32.544Z,56.10
2019-05-29T13:21:01.032Z,56.50
2019-05-29T13:23:43.985Z,56.30
2019-05-29T13:25:59.469Z,55.90
2019-05-29T13:28:27.883Z,55.20
2019-05-29T13:30:57.636Z,53.60
2019-05-29T13:33:26.180Z,53.50
2019-05-29T13:35:56.142Z,52.90
2019-05-29T13:38:24.663Z,52.50
2019-05-29T13:40:53.096Z,51.70
2019-05-29T13:43:21.477Z,52.50
2019-05-29T13:45:49.867Z,53.00
2019-05-29T13:48:18.301Z,52.90
2019-05-29T13:50:48.815Z,52.50
2019-05-29T13:53:16.780Z,52.30
2019-05-29T13:55:45.178Z,52.60
2019-05-29T13:58:13.658Z,53.20
2019-05-29T14:00:42.018Z,52.60
2019-05-29T14:03:10.430Z,51.50
2019-05-29T14:05:38.831Z,50.40
2019-05-29T14:08:07.303Z,49.20
2019-05-29T14:10:35.624Z,48.90
2019-05-29T14:13:05.233Z,49.00
2019-05-29T14:15:33.683Z,50.30
2019-05-29T14:18:02.839Z,50.60
2019-05-29T14:20:31.432Z,50.80
2019-05-29T14:23:01.141Z,50.30
2019-05-29T14:25:29.740Z,50.10
2019-05-29T14:27:58.146Z,49.10
2019-05-29T14:30:26.627Z,48.50
2019-05-29T14:32:55.036Z,48.90
2019-05-29T14:35:23.504Z,49.40
2019-05-29T14:37:51.967Z,50.00
2019-05-29T14:40:20.339Z,50.00
2019-05-29T14:42:48.838Z,49.90
2019-05-29T14:45:17.164Z,49.30
2019-05-29T14:47:45.572Z,48.70
2019-05-29T14:50:13.950Z,49.30
2019-05-29T14:52:42.346Z,50.10
2019-05-29T14:55:16.092Z,51.10
2019-05-29T14:57:41.083Z,51.50
2019-05-29T15:00:22.143Z,51.50
2019-05-29T15:02:41.312Z,50.90
2019-05-29T15:05:09.892Z,51.20
2019-05-29T15:07:38.367Z,52.50
2019-05-29T15:10:12.798Z,51.90
2019-05-29T15:12:38.363Z,51.50
2019-05-29T15:15:08.636Z,51.50
2019-05-29T15:17:37.538Z,51.40
2019-05-29T15:20:09.356Z,49.60
2019-05-29T15:22:37.779Z,49.40
2019-05-29T15:25:19.493Z,49.90
2019-05-29T15:27:39.779Z,49.70
2019-05-29T15:30:08.938Z,49.90
2019-05-29T15:32:37.676Z,50.60
2019-05-29T15:35:10.963Z,50.90
2019-05-29T15:37:37.389Z,51.20
2019-05-29T15:40:08.997Z,51.00
2019-05-29T15:42:37.460Z,50.80
2019-05-29T15:45:07.704Z,50.70
2019-05-29T15:47:36.127Z,50.50
2019-05-29T15:50:11.553Z,50.50
2019-05-29T15:52:40.184Z,50.00
2019-05-29T15:55:21.426Z,50.30
2019-05-29T15:57:38.680Z,50.10
2019-05-29T16:00:13.382Z,49.40
2019-05-29T16:02:41.985Z,49.60
2019-05-29T16:05:11.100Z,50.00
2019-05-29T16:07:39.692Z,50.80
2019-05-29T16:10:08.333Z,52.20
2019-05-29T16:12:36.695Z,52.50
2019-05-29T16:15:06.648Z,52.30
2019-05-29T16:17:35.058Z,52.60
2019-05-29T16:20:05.040Z,53.00
2019-05-29T16:22:33.445Z,53.20
2019-05-29T16:25:01.818Z,53.50
2019-05-29T16:27:31.090Z,53.70
2019-05-29T16:29:59.617Z,54.00
2019-05-29T16:32:28.054Z,54.30
2019-05-29T16:34:56.424Z,54.80
2019-05-29T16:37:24.831Z,54.50
2019-05-29T16:39:53.309Z,54.80
2019-05-29T16:42:22.107Z,55.80
2019-05-29T16:44:50.611Z,55.80
2019-05-29T16:47:19.075Z,56.00
2019-05-29T16:49:47.457Z,55.80
2019-05-29T16:52:16.826Z,55.60
2019-05-29T16:54:45.275Z,55.30
2019-05-29T16:57:15.396Z,55.40
2019-05-29T16:59:43.819Z,55.80
2019-05-29T17:02:13.519Z,55.80
2019-05-29T17:04:42.361Z,55.70
2019-05-29T17:07:10.787Z,55.50
2019-05-29T17:09:39.211Z,55.90
2019-05-29T17:12:07.587Z,56.20
2019-05-29T17:14:35.993Z,56.30
2019-05-29T17:17:04.408Z,56.70
2019-05-29T17:19:32.809Z,56.90
2019-05-29T17:22:01.318Z,57.50
2019-05-29T17:24:29.908Z,58.30
2019-05-29T17:26:58.343Z,59.10
2019-05-29T17:29:26.736Z,59.70
2019-05-29T17:31:55.156Z,60.70
2019-05-29T17:34:23.548Z,61.50
2019-05-29T17:36:52.961Z,62.10
2019-05-29T17:39:21.438Z,63.00
2019-05-29T17:41:49.859Z,64.30
2019-05-29T17:44:19.334Z,65.10
2019-05-29T17:46:47.844Z,66.20
2019-05-29T17:49:17.640Z,66.70
2019-05-29T17:51:46.181Z,67.40
2019-05-29T17:54:15.708Z,68.30
2019-05-29T17:56:44.276Z,69.20
2019-05-29T17:59:12.773Z,70.40
2019-05-29T18:01:41.160Z,71.60
2019-05-29T18:04:09.574Z,72.90
2019-05-29T18:06:37.997Z,73.90
2019-05-29T18:09:07.942Z,74.80
2019-05-29T18:11:36.362Z,75.20
2019-05-29T18:14:07.577Z,75.40
2019-05-29T18:16:34.830Z,76.00
2019-05-29T18:19:03.230Z,76.70
2019-05-29T18:21:31.647Z,77.10
2019-05-29T18:24:00.086Z,77.10
2019-05-29T18:26:45.953Z,77.00
2019-05-29T18:28:58.573Z,76.20
2019-05-29T18:31:26.960Z,75.90
2019-05-29T18:33:55.372Z,75.80
2019-05-29T18:36:25.241Z,75.80
2019-05-29T18:38:53.908Z,76.00
2019-05-29T18:41:22.328Z,76.10
2019-05-29T18:43:50.736Z,76.10
2019-05-29T18:46:19.144Z,76.30
2019-05-29T18:48:47.534Z,76.60
2019-05-29T18:51:15.968Z,77.00
2019-05-29T18:53:44.361Z,77.50
2019-05-29T18:56:12.779Z,77.70
2019-05-29T18:58:41.205Z,77.80
2019-05-29T19:01:09.568Z,78.40
2019-05-29T19:03:40.375Z,78.80
2019-05-29T19:06:07.995Z,79.20
2019-05-29T19:08:36.417Z,79.70
2019-05-29T19:11:04.908Z,80.00
2019-05-29T19:13:33.311Z,80.60
2019-05-29T19:16:01.817Z,81.20
2019-05-29T19:18:30.265Z,81.80
2019-05-29T19:20:58.599Z,82.60
2019-05-29T19:23:26.997Z,83.30
2019-05-29T19:25:55.380Z,83.90
2019-05-29T19:28:24.554Z,84.70
2019-05-29T19:30:52.979Z,85.50
2019-05-29T19:33:21.387Z,86.20
2019-05-29T19:35:49.930Z,86.70
2019-05-29T19:38:18.322Z,87.10
2019-05-29T19:40:46.727Z,87.20
2019-05-29T19:43:15.126Z,87.30
2019-05-29T19:45:43.531Z,87.60
2019-05-29T19:48:11.912Z,87.60
2019-05-29T19:50:40.335Z,87.90
2019-05-29T19:53:08.743Z,88.00
2019-05-29T19:55:38.387Z,88.20
2019-05-29T19:58:06.931Z,88.60
2019-05-29T20:00:36.298Z,88.80
2019-05-29T20:03:05.185Z,89.20
2019-05-29T20:05:34.844Z,89.40
2019-05-29T20:08:03.303Z,90.00
2019-05-29T20:10:31.688Z,90.20
2019-05-29T20:13:00.088Z,90.50
2019-05-29T20:15:29.805Z,90.80
2019-05-29T20:17:58.453Z,90.80
2019-05-29T20:20:26.828Z,90.80
2019-05-29T20:22:55.231Z,91.00
2019-05-29T20:25:23.636Z,91.30
2019-05-29T20:28:05.499Z,91.40
2019-05-29T20:30:24.750Z,91.50
2019-05-29T20:32:53.119Z,91.70
2019-05-29T20:35:21.540Z,91.90
2019-05-29T20:37:49.938Z,92.10
2019-05-29T20:40:18.979Z,92.20
2019-05-29T20:42:47.359Z,92.30
2019-05-29T20:45:15.737Z,92.40
2019-05-29T20:47:44.148Z,92.50
2019-05-29T20:50:12.555Z,92.50
2019-05-29T20:52:41.486Z,92.80
2019-05-29T20:55:09.938Z,92.90
2019-05-29T20:57:38.332Z,93.00
2019-05-29T21:00:11.713Z,93.10
2019-05-29T21:02:40.499Z,93.10
2019-05-29T21:05:08.884Z,93.20
2019-05-29T21:07:37.337Z,93.40
2019-05-29T21:10:05.740Z,93.50
2019-05-29T21:12:35.151Z,93.70
2019-05-29T21:15:04.585Z,93.70
2019-05-29T21:17:33.731Z,93.90
2019-05-29T21:20:02.203Z,94.20
2019-05-29T21:22:30.582Z,94.40
2019-05-29T21:25:05.366Z,94.60
2019-05-29T21:27:29.413Z,94.80
2019-05-29T21:29:57.796Z,95.40
2019-05-29T21:32:26.205Z,95.20
2019-05-29T21:34:54.599Z,95.30
2019-05-29T21:37:23.007Z,95.40
2019-05-29T21:39:51.392Z,95.50
2019-05-29T21:42:19.791Z,95.60
2019-05-29T21:44:48.197Z,95.60
2019-05-29T21:47:16.572Z,95.70
2019-05-29T21:49:45.317Z,95.80
2019-05-29T21:52:13.701Z,95.80
2019-05-29T21:54:43.561Z,95.80
2019-05-29T21:57:12.057Z,96.00
2019-05-29T21:59:41.623Z,96.10
2019-05-29T22:02:10.740Z,96.10
2019-05-29T22:04:40.337Z,96.30
2019-05-29T22:07:08.841Z,96.40
2019-05-29T22:09:37.269Z,96.40
2019-05-29T22:12:05.718Z,96.40
2019-05-29T22:14:34.196Z,96.50
2019-05-29T22:17:02.595Z,96.50
2019-05-29T22:19:31.047Z,96.40
2019-05-29T22:21:59.450Z,96.50
2019-05-29T22:24:30.786Z,96.50
2019-05-29T22:26:59.396Z,96.50
2019-05-29T22:29:27.820Z,96.50
2019-05-29T22:31:57.489Z,96.50
2019-05-29T22:34:26.078Z,96.50
2019-05-29T22:36:55.475Z,96.50
2019-05-29T22:39:24.019Z,96.50
2019-05-29T22:41:53.414Z,96.60
2019-05-29T22:44:21.940Z,96.60
2019-05-29T22:46:51.558Z,96.80
2019-05-29T22:49:20.020Z,97.00
2019-05-29T22:51:48.405Z,97.10
2019-05-29T22:54:16.803Z,97.20
2019-05-29T22:56:46.185Z,97.30
2019-05-29T22:59:30.912Z,97.40
2019-05-29T23:01:44.707Z,97.50
2019-05-29T23:04:13.094Z,97.80
2019-05-29T23:06:42.448Z,98.10
2019-05-29T23:09:10.807Z,98.50
2019-05-29T23:11:39.209Z,99.00
2019-05-29T23:14:07.616Z,99.50
2019-05-29T23:16:36.091Z,99.90
2019-05-29T23:19:04.532Z,99.90
2019-05-29T23:21:33.924Z,99.90
2019-05-29T23:24:02.342Z,99.90
2019-05-29T23:26:30.766Z,99.90
2019-05-29T23:28:59.347Z,99.90
2019-05-29T23:31:27.725Z,99.90
2019-05-29T23:33:56.928Z,99.90
2019-05-29T23:36:25.322Z,99.90
2019-05-29T23:38:54.887Z,99.90
2019-05-29T23:41:23.558Z,99.90
2019-05-29T23:43:53.244Z,99.90
2019-05-29T23:46:21.817Z,99.90
2019-05-29T23:48:50.230Z,99.90
2019-05-29T23:51:18.647Z,99.90
2019-05-29T23:53:47.131Z,99.90
2019-05-29T23:56:15.532Z,99.90
2019-05-29T23:58:43.959Z,99.90
